Time;durP1;ratioP1;P1;durP2;ratioP2;P2;SDS_P1;SDS_P2;PMS_P1;PMS_P2;Temp;Humidity;BMP_temperature;BMP_pressure;BME280_temperature;BME280_humidity;BME280_pressure;Samples;Min_cycle;Max_cycle;Signal;HPM_P1;HPM_P2
2022/06/14 00:01:43;;;;;;;;;;;;;;;12.64;93.30;102447.31;5091919;28;19928;-30
2022/06/14 00:04:12;;;;;;;;;;;;;;;12.63;93.66;102451.22;5090372;28;20384;-31
2022/06/14 00:06:40;;;;;;;;;;;;;;;12.61;93.71;102456.25;5092084;28;19924;-34
2022/06/14 00:09:08;;;;;;;;;;;;;;;12.59;93.80;102450.09;5091014;28;19931;-35
2022/06/14 00:11:37;;;;;;;;;;;;;;;12.59;93.78;102447.28;5091659;28;20433;-35
2022/06/14 00:14:06;;;;;;;;;;;;;;;12.58;94.09;102445.63;5091751;28;19966;-40
2022/06/14 00:16:34;;;;;;;;;;;;;;;12.56;94.18;102447.88;5090494;28;19928;-36
2022/06/14 00:19:04;;;;;;;;;;;;;;;12.55;94.31;102442.53;5091673;28;19930;-27
2022/06/14 00:21:33;;;;;;;;;;;;;;;12.53;94.23;102442.81;5091369;28;19924;-30
2022/06/14 00:24:01;;;;;;;;;;;;;;;12.51;94.25;102444.19;5091042;28;19998;-31
2022/06/14 00:26:29;;;;;;;;;;;;;;;12.49;94.14;102447.25;5091446;28;19928;-32
2022/06/14 00:28:57;;;;;;;;;;;;;;;12.46;94.16;102445.00;5091551;28;19963;-32
2022/06/14 00:31:26;;;;;;;;;;;;;;;12.45;93.63;102439.69;5074529;28;19931;-34
2022/06/14 00:33:54;;;;;;;;;;;;;;;12.43;94.08;102448.34;5091358;28;19960;-39
2022/06/14 00:36:23;;;;;;;;;;;;;;;12.42;94.01;102446.66;5091120;28;19924;-35
2022/06/14 00:38:52;;;;;;;;;;;;;;;12.39;94.49;102448.03;5090825;28;19931;-32
2022/06/14 00:41:25;;;;;;;;;;;;;;;12.39;94.56;102444.41;5091496;28;19924;-34
2022/06/14 00:43:52;;;;;;;;;;;;;;;12.39;94.98;102438.81;5090933;28;19924;-31
2022/06/14 00:46:21;;;;;;;;;;;;;;;12.38;95.32;102443.59;5090567;28;19962;-33
2022/06/14 00:48:56;;;;;;;;;;;;;;;12.38;95.43;102437.16;5091096;28;19939;-27
2022/06/14 00:51:25;;;;;;;;;;;;;;;12.36;95.67;102440.22;5089474;28;20392;-28
2022/06/14 00:53:57;;;;;;;;;;;;;;;12.36;95.22;102442.16;5091267;28;19924;-28
2022/06/14 00:56:27;;;;;;;;;;;;;;;12.33;94.89;102434.31;5091193;28;19924;-32
2022/06/14 00:58:56;;;;;;;;;;;;;;;12.32;94.86;102439.06;5090427;28;19932;-32
2022/06/14 01:01:28;;;;;;;;;;;;;;;12.30;95.08;102438.50;5091037;28;19928;-32
2022/06/14 01:03:58;;;;;;;;;;;;;;;12.30;94.71;102440.44;5091112;28;20373;-33
2022/06/14 01:06:28;;;;;;;;;;;;;;;12.28;94.45;102439.88;5087001;28;19935;-30
2022/06/14 01:08:59;;;;;;;;;;;;;;;12.25;93.83;102432.03;5085943;28;19924;-27
2022/06/14 01:11:30;;;;;;;;;;;;;;;12.23;93.63;102429.50;5090938;28;20380;-32
2022/06/14 01:13:58;;;;;;;;;;;;;;;12.18;93.27;102440.69;5090526;28;19928;-28
2022/06/14 01:16:25;;;;;;;;;;;;;;;12.16;92.83;102434.50;5092069;28;19968;-31
2022/06/14 01:18:53;;;;;;;;;;;;;;;12.15;92.69;102431.97;5095020;28;19931;-29
2022/06/14 01:21:20;;;;;;;;;;;;;;;12.13;92.28;102432.25;5094045;28;19924;-30
2022/06/14 01:23:50;;;;;;;;;;;;;;;12.11;92.10;102431.69;5094579;28;19928;-31
2022/06/14 01:26:19;;;;;;;;;;;;;;;12.08;91.76;102421.88;5095048;28;19954;-29
2022/06/14 01:28:49;;;;;;;;;;;;;;;12.07;91.69;102420.19;5094734;28;19934;-29
2022/06/14 01:31:18;;;;;;;;;;;;;;;12.04;91.43;102422.66;5094724;28;20410;-28
2022/06/14 01:33:48;;;;;;;;;;;;;;;12.02;91.27;102424.91;5093853;28;20098;-33
2022/06/14 01:36:23;;;;;;;;;;;;;;;11.98;90.95;102421.81;5094576;28;20288;-35
2022/06/14 01:38:53;;;;;;;;;;;;;;;11.96;91.02;102426.84;5094462;28;20368;-28
2022/06/14 01:41:30;;;;;;;;;;;;;;;11.93;90.55;102418.97;5083051;28;19924;-32
2022/06/14 01:44:13;;;;;;;;;;;;;;;11.93;90.51;102415.34;5094580;28;19924;-31
2022/06/14 01:46:45;;;;;;;;;;;;;;;11.92;90.52;102413.66;5084955;28;20030;-35
2022/06/14 01:52:20;;;;;;;;;;;;;;;11.89;90.02;102403.84;5094250;28;20381;-38
2022/06/14 01:54:55;;;;;;;;;;;;;;;11.88;89.95;102409.72;5093509;28;20718;-29
2022/06/14 01:57:28;;;;;;;;;;;;;;;11.87;89.86;102402.44;5093981;28;19924;-35
2022/06/14 02:00:00;;;;;;;;;;;;;;;11.87;89.86;102394.03;5094404;28;20022;-33
2022/06/14 02:02:39;;;;;;;;;;;;;;;11.85;90.18;102399.91;5093467;28;20300;-32
2022/06/14 02:05:12;;;;;;;;;;;;;;;11.85;90.79;102401.84;5093785;28;19961;-35
2022/06/14 02:07:45;;;;;;;;;;;;;;;11.84;91.24;102403.81;5093939;28;19924;-32
2022/06/14 02:10:18;;;;;;;;;;;;;;;11.84;91.59;102398.22;5093459;28;19931;-32
2022/06/14 02:12:48;;;;;;;;;;;;;;;11.84;92.23;102397.38;5093835;28;19935;-34
2022/06/14 02:15:22;;;;;;;;;;;;;;;11.84;92.16;102397.38;5093909;28;19930;-32
2022/06/14 02:17:57;;;;;;;;;;;;;;;11.84;92.49;102389.81;5092819;28;20296;-34
2022/06/14 02:20:27;;;;;;;;;;;;;;;11.86;92.56;102397.94;5093600;28;20462;-31
2022/06/14 02:22:56;;;;;;;;;;;;;;;11.86;92.99;102393.19;5093021;28;19934;-36
2022/06/14 02:25:29;;;;;;;;;;;;;;;11.89;94.44;102398.25;5093703;28;19928;-31
2022/06/14 02:27:59;;;;;;;;;;;;;;;11.92;94.74;102397.72;5082773;28;19924;-30
2022/06/14 02:30:29;;;;;;;;;;;;;;;11.94;94.66;102392.69;5092817;28;20292;-35
2022/06/14 02:33:01;;;;;;;;;;;;;;;11.96;94.88;102390.47;5093274;28;20311;-38
2022/06/14 02:35:32;;;;;;;;;;;;;;;11.98;95.31;102393.84;5082558;28;19939;-32
2022/06/14 02:38:03;;;;;;;;;;;;;;;11.99;95.16;102389.09;5092658;28;20288;-32
2022/06/14 02:40:36;;;;;;;;;;;;;;;11.99;95.63;102392.69;5093442;28;20027;-32
2022/06/14 02:43:07;;;;;;;;;;;;;;;11.97;95.88;102394.97;5093318;28;19935;-29
2022/06/14 02:45:38;;;;;;;;;;;;;;;11.99;96.54;102389.09;5092419;28;19930;-32
2022/06/14 02:48:08;;;;;;;;;;;;;;;11.99;96.75;102387.09;5088497;28;19928;-36
2022/06/14 02:50:39;;;;;;;;;;;;;;;12.00;96.92;102386.00;5093739;28;19931;-33
2022/06/14 02:53:11;;;;;;;;;;;;;;;12.02;97.58;102389.38;5091494;28;20280;-30
2022/06/14 02:55:43;;;;;;;;;;;;;;;12.03;98.28;102382.66;5093259;28;19924;-32
2022/06/14 02:58:12;;;;;;;;;;;;;;;12.04;98.83;102384.34;5092226;28;19986;-33
2022/06/14 03:00:42;;;;;;;;;;;;;;;12.06;99.56;102384.91;5093235;28;19928;-34
2022/06/14 03:03:14;;;;;;;;;;;;;;;12.06;99.91;102382.13;5092566;28;19928;-34
2022/06/14 03:05:44;;;;;;;;;;;;;;;12.06;99.97;102389.66;5090756;28;19946;-35
2022/06/14 03:08:14;;;;;;;;;;;;;;;12.04;100.00;102387.13;5090755;28;19932;-33
2022/06/14 03:10:48;;;;;;;;;;;;;;;12.04;100.00;102387.13;5089654;28;20385;-33
2022/06/14 03:13:22;;;;;;;;;;;;;;;12.03;100.00;102391.06;5089978;28;20402;-33
2022/06/14 03:15:53;;;;;;;;;;;;;;;12.03;100.00;102385.44;5087732;28;19925;-30
2022/06/14 03:18:27;;;;;;;;;;;;;;;12.03;100.00;102391.06;5090518;28;20380;-32
2022/06/14 03:20:57;;;;;;;;;;;;;;;12.03;100.00;102391.06;5087419;28;20015;-31
2022/06/14 03:23:29;;;;;;;;;;;;;;;12.04;100.00;102392.72;5087084;28;19924;-32
2022/06/14 03:26:05;;;;;;;;;;;;;;;12.04;100.00;102392.72;5091900;28;19927;-27
2022/06/14 03:28:37;;;;;;;;;;;;;;;12.05;100.00;102391.63;5086292;28;19935;-31
2022/06/14 03:31:06;;;;;;;;;;;;;;;12.05;100.00;102388.81;5090867;28;20363;-35
2022/06/14 03:33:36;;;;;;;;;;;;;;;12.07;100.00;102388.56;5091740;28;19932;-37
2022/06/14 03:36:05;;;;;;;;;;;;;;;12.10;100.00;102398.38;5088873;28;19924;-39
2022/06/14 03:38:34;;;;;;;;;;;;;;;12.11;100.00;102397.25;5087839;28;19928;-30
2022/06/14 03:41:04;;;;;;;;;;;;;;;12.12;100.00;102398.94;5090142;28;20366;-32
2022/06/14 03:43:32;;;;;;;;;;;;;;;12.14;100.00;102391.13;5090028;28;19957;-37
2022/06/14 03:46:03;;;;;;;;;;;;;;;12.16;100.00;102394.50;5091286;28;20030;-33
2022/06/14 03:48:31;;;;;;;;;;;;;;;12.18;100.00;102397.88;5090291;28;19939;-35
2022/06/14 03:51:01;;;;;;;;;;;;;;;12.20;100.00;102407.63;5091045;28;20712;-33
2022/06/14 03:53:42;;;;;;;;;;;;;;;12.25;100.00;102399.28;5089188;28;19932;-32
2022/06/14 03:56:24;;;;;;;;;;;;;;;12.30;100.00;102406.88;5089813;28;19935;-31
2022/06/14 03:59:13;;;;;;;;;;;;;;;12.32;100.00;102405.47;5090998;28;19931;-35
2022/06/14 04:01:42;;;;;;;;;;;;;;;12.35;100.00;102402.13;5089880;28;19928;-30
2022/06/14 04:04:17;;;;;;;;;;;;;;;12.39;100.00;102402.41;5090579;28;19928;-34
2022/06/14 04:06:50;;;;;;;;;;;;;;;12.42;100.00;102402.72;5090353;28;19924;-29
2022/06/14 04:09:25;;;;;;;;;;;;;;;12.45;100.00;102404.13;5090075;28;20412;-34
2022/06/14 04:11:57;;;;;;;;;;;;;;;12.49;100.00;102402.47;5090802;28;19974;-30
2022/06/14 04:14:35;;;;;;;;;;;;;;;12.54;100.00;102410.88;5090804;28;20035;-29
2022/06/14 04:17:10;;;;;;;;;;;;;;;12.59;100.00;102396.06;5089673;28;20034;-35
2022/06/14 04:19:47;;;;;;;;;;;;;;;12.65;100.00;102407.00;5089386;28;19935;-37
2022/06/14 04:22:20;;;;;;;;;;;;;;;12.71;100.00;102407.84;5089827;28;19928;-35
2022/06/14 04:24:51;;;;;;;;;;;;;;;12.78;100.00;102402.84;5089293;28;19928;-35
2022/06/14 04:27:23;;;;;;;;;;;;;;;12.83;100.00;102399.19;5090500;28;20010;-35
2022/06/14 04:29:54;;;;;;;;;;;;;;;12.87;100.00;102395.56;5089508;28;19928;-32
2022/06/14 04:32:27;;;;;;;;;;;;;;;12.92;100.00;102397.53;5090688;28;19924;-30
2022/06/14 04:35:01;;;;;;;;;;;;;;;12.97;100.00;102391.94;5090873;28;20441;-33
2022/06/14 04:37:33;;;;;;;;;;;;;;;13.03;100.00;102391.66;5089431;28;20394;-27
2022/06/14 04:40:03;;;;;;;;;;;;;;;13.09;100.00;102392.50;5090357;28;19934;-36
2022/06/14 04:42:37;;;;;;;;;;;;;;;13.14;100.00;102384.13;5090359;28;19928;-35
2022/06/14 04:45:08;;;;;;;;;;;;;;;13.19;100.00;102394.53;5089719;28;19924;-37
2022/06/14 04:47:39;;;;;;;;;;;;;;;13.22;100.00;102394.78;5090267;28;20011;-31
2022/06/14 04:50:09;;;;;;;;;;;;;;;13.27;100.00;102394.78;5091426;28;19938;-34
2022/06/14 04:52:39;;;;;;;;;;;;;;;13.31;100.00;102395.94;5093179;28;20022;-35
2022/06/14 04:55:09;;;;;;;;;;;;;;;13.35;100.00;102396.22;5094298;28;20349;-34
2022/06/14 04:57:43;;;;;;;;;;;;;;;13.40;100.00;102397.03;5093357;28;19930;-33
2022/06/14 05:00:12;;;;;;;;;;;;;;;13.44;100.00;102398.16;5094307;28;20464;-35
2022/06/14 05:02:43;;;;;;;;;;;;;;;13.51;100.00;102405.47;5094251;28;19939;-31
2022/06/14 05:05:14;;;;;;;;;;;;;;;13.54;100.00;102404.91;5093227;28;19928;-32
2022/06/14 05:07:44;;;;;;;;;;;;;;;13.59;100.00;102402.09;5094221;28;19927;-32
2022/06/14 05:10:13;;;;;;;;;;;;;;;13.63;100.00;102404.03;5090858;28;20281;-34
2022/06/14 05:12:46;;;;;;;;;;;;;;;13.68;100.00;102400.38;5093436;28;19928;-38
2022/06/14 05:15:18;;;;;;;;;;;;;;;13.73;100.00;102411.59;5093326;28;19928;-32
2022/06/14 05:17:48;;;;;;;;;;;;;;;13.77;100.00;102401.50;5091920;28;19928;-36
2022/06/14 05:20:19;;;;;;;;;;;;;;;13.82;100.00;102415.50;5093170;28;19939;-33
2022/06/14 05:22:51;;;;;;;;;;;;;;;13.87;100.00;102404.28;5093574;28;19924;-33
2022/06/14 05:25:19;;;;;;;;;;;;;;;13.93;100.00;102405.13;5092376;28;20308;-36
2022/06/14 05:27:52;;;;;;;;;;;;;;;13.96;100.00;102405.41;5092711;28;19947;-36
2022/06/14 05:30:29;;;;;;;;;;;;;;;14.00;100.00;102408.44;5090900;28;19928;-34
2022/06/14 05:32:59;;;;;;;;;;;;;;;14.04;100.00;102403.94;5092357;28;19924;-32
2022/06/14 05:35:33;;;;;;;;;;;;;;;14.10;100.00;102400.00;5089325;28;20026;-35
2022/06/14 05:38:09;;;;;;;;;;;;;;;14.17;100.00;102399.72;5093234;28;19928;-35
2022/06/14 05:40:38;;;;;;;;;;;;;;;14.21;100.00;102404.47;5088932;28;19935;-29
2022/06/14 05:43:12;;;;;;;;;;;;;;;14.25;100.00;102405.56;5093099;28;19934;-35
2022/06/14 05:45:42;;;;;;;;;;;;;;;14.28;100.00;102395.75;5093276;28;20383;-37
2022/06/14 05:48:10;;;;;;;;;;;;;;;14.34;100.00;102411.44;5092820;28;20690;-30
2022/06/14 05:50:41;;;;;;;;;;;;;;;14.39;100.00;102411.41;5091827;28;19931;-32
2022/06/14 05:53:10;;;;;;;;;;;;;;;14.45;100.00;102407.50;5092673;28;20361;-28
2022/06/14 05:55:42;;;;;;;;;;;;;;;14.51;100.00;102405.50;5092657;28;19930;-37
2022/06/14 05:58:14;;;;;;;;;;;;;;;14.55;100.00;102399.03;5093167;28;20385;-36
2022/06/14 06:00:44;;;;;;;;;;;;;;;14.60;100.00;102407.41;5092109;28;20023;-30
2022/06/14 06:03:16;;;;;;;;;;;;;;;14.66;100.00;102399.81;5092019;28;20026;-34
2022/06/14 06:05:46;;;;;;;;;;;;;;;14.70;100.00;102395.28;5092554;28;19993;-33
2022/06/14 06:08:16;;;;;;;;;;;;;;;14.75;100.00;102398.09;5091984;28;19925;-37
2022/06/14 06:10:46;;;;;;;;;;;;;;;14.83;100.00;102397.44;5093031;28;19931;-32
2022/06/14 06:13:19;;;;;;;;;;;;;;;14.91;100.00;102398.81;5092724;28;20284;-32
2022/06/14 06:15:49;;;;;;;;;;;;;;;14.99;100.00;102401.84;5091595;28;19931;-34
2022/06/14 06:18:19;;;;;;;;;;;;;;;15.08;100.00;102402.91;5090698;28;19935;-35
2022/06/14 06:20:50;;;;;;;;;;;;;;;15.20;100.00;102407.31;5092566;28;19925;-32
2022/06/14 06:23:20;;;;;;;;;;;;;;;15.32;100.00;102402.19;5092000;28;19924;-32
2022/06/14 06:25:49;;;;;;;;;;;;;;;15.42;100.00;102402.91;5082019;28;20057;-36
2022/06/14 06:28:23;;;;;;;;;;;;;;;15.56;100.00;102405.94;5085010;28;20022;-33
2022/06/14 06:30:53;;;;;;;;;;;;;;;15.76;100.00;102405.75;5091295;28;19958;-32
2022/06/14 06:33:22;;;;;;;;;;;;;;;15.99;100.00;102406.91;5080274;28;20465;-36
2022/06/14 06:35:55;;;;;;;;;;;;;;;16.28;100.00;102409.69;5091106;28;20297;-33
2022/06/14 06:38:29;;;;;;;;;;;;;;;16.63;97.66;102410.34;5090781;28;19927;-39
2022/06/14 06:43:50;;;;;;;;;;;;;;;17.50;94.97;102419.22;5082186;28;19955;-38
2022/06/14 06:46:20;;;;;;;;;;;;;;;17.80;93.19;102418.69;5092906;28;19931;-33
2022/06/14 06:48:52;;;;;;;;;;;;;;;18.00;88.04;102416.63;5092874;28;19993;-38
2022/06/14 06:51:23;;;;;;;;;;;;;;;18.06;84.51;102418.22;5091860;28;19924;-31
2022/06/14 06:53:57;;;;;;;;;;;;;;;18.08;83.97;102419.59;5092472;28;20347;-32
2022/06/14 06:56:27;;;;;;;;;;;;;;;18.20;84.66;102427.53;5088786;28;19928;-31
2022/06/14 06:58:57;;;;;;;;;;;;;;;18.31;81.99;102434.69;5091336;28;19931;-33
2022/06/14 07:01:26;;;;;;;;;;;;;;;18.32;82.39;102427.06;5092239;28;20038;-30
2022/06/14 07:03:59;;;;;;;;;;;;;;;18.39;82.05;102430.28;5092649;28;20427;-35
2022/06/14 07:06:28;;;;;;;;;;;;;;;18.46;82.65;102431.53;5090742;28;20023;-34
2022/06/14 07:08:58;;;;;;;;;;;;;;;18.51;81.72;102434.28;5090353;28;19930;-34
2022/06/14 07:11:28;;;;;;;;;;;;;;;18.54;82.17;102433.66;4163128;27;10000932;-33
2022/06/14 07:14:00;;;;;;;;;;;;;;;18.64;82.16;102441.09;5037778;28;19925;-36
2022/06/14 07:16:30;;;;;;;;;;;;;;;18.59;79.18;102442.03;5039059;28;20015;-33
2022/06/14 07:19:05;;;;;;;;;;;;;;;18.46;79.06;102442.00;5038651;28;19947;-33
2022/06/14 07:21:34;;;;;;;;;;;;;;;18.35;79.66;102432.06;5039073;28;19932;-29
2022/06/14 07:24:04;;;;;;;;;;;;;;;18.35;80.37;102435.75;5030958;28;19925;-29
2022/06/14 07:26:34;;;;;;;;;;;;;;;18.39;80.49;102444.41;5039725;28;20008;-31
2022/06/14 07:29:06;;;;;;;;;;;;;;;18.40;80.90;102437.59;5037226;28;19929;-30
2022/06/14 07:31:37;;;;;;;;;;;;;;;18.33;80.51;102442.84;5044289;28;19937;-35
2022/06/14 07:34:05;;;;;;;;;;;;;;;18.33;80.60;102440.03;5043550;28;20356;-29
2022/06/14 07:36:42;;;;;;;;;;;;;;;18.37;80.41;102438.25;5041654;28;19940;-29
2022/06/14 07:39:26;;;;;;;;;;;;;;;18.46;79.49;102439.19;5041094;28;19932;-29
2022/06/14 07:41:57;;;;;;;;;;;;;;;18.49;78.67;102441.38;5041972;28;19931;-30
2022/06/14 07:44:31;;;;;;;;;;;;;;;18.53;79.77;102436.78;5039233;28;20019;-29
2022/06/14 07:47:02;;;;;;;;;;;;;;;18.61;79.39;102438.06;5041250;28;19929;-29
2022/06/14 07:49:34;;;;;;;;;;;;;;;18.73;80.72;102442.03;5039085;28;19957;-29
2022/06/14 07:52:06;;;;;;;;;;;;;;;18.86;79.19;102441.16;5041856;28;20435;-34
2022/06/14 07:54:36;;;;;;;;;;;;;;;18.85;75.24;102445.16;5038359;28;19936;-29
2022/06/14 07:57:08;;;;;;;;;;;;;;;18.75;75.25;102445.38;5041956;28;20313;-29
2022/06/14 07:59:41;;;;;;;;;;;;;;;18.75;77.84;102444.56;5038938;28;19933;-29
2022/06/14 08:02:14;;;;;;;;;;;;;;;18.78;78.02;102444.75;5040835;28;19972;-34
2022/06/14 08:04:46;;;;;;;;;;;;;;;18.72;76.15;102462.16;5039104;28;20266;-31
2022/06/14 08:07:14;;;;;;;;;;;;;;;18.65;76.23;102447.59;5041349;28;19926;-30
2022/06/14 08:09:43;;;;;;;;;;;;;;;18.65;77.87;102444.75;5038732;28;19925;-32
2022/06/14 08:12:14;;;;;;;;;;;;;;;18.64;77.82;102445.91;5041449;28;19947;-29
2022/06/14 08:14:48;;;;;;;;;;;;;;;18.57;76.12;102443.50;5037642;28;19925;-35
2022/06/14 08:17:18;;;;;;;;;;;;;;;18.47;76.26;102438.88;5041320;28;19936;-29
2022/06/14 08:19:50;;;;;;;;;;;;;;;18.53;78.51;102436.78;5038610;28;19929;-33
2022/06/14 08:22:20;;;;;;;;;;;;;;;18.56;77.40;102445.47;5040650;28;19932;-33
2022/06/14 08:24:49;;;;;;;;;;;;;;;18.43;76.50;102445.47;5027489;28;20445;-33
2022/06/14 08:27:20;;;;;;;;;;;;;;;18.40;78.46;102444.09;5039551;28;19931;-29
2022/06/14 08:29:54;;;;;;;;;;;;;;;18.47;78.91;102441.69;5035945;28;20397;-30
2022/06/14 08:32:24;;;;;;;;;;;;;;;18.52;77.59;102438.78;5041382;28;19935;-29
2022/06/14 08:34:56;;;;;;;;;;;;;;;18.39;75.27;102444.41;5037230;28;19925;-37
2022/06/14 08:37:29;;;;;;;;;;;;;;;18.34;76.99;102445.38;5036430;28;19939;-31
2022/06/14 08:40:00;;;;;;;;;;;;;;;18.33;77.71;102442.84;5038486;28;19925;-29
2022/06/14 08:42:31;;;;;;;;;;;;;;;18.32;78.14;102438.34;5038275;28;19925;-34
2022/06/14 08:45:03;;;;;;;;;;;;;;;18.34;78.15;102445.38;5040208;28;19960;-33
2022/06/14 08:47:37;;;;;;;;;;;;;;;18.37;77.98;102441.94;5042306;28;19966;-29
2022/06/14 08:50:09;;;;;;;;;;;;;;;18.37;78.73;102441.94;5037290;28;19932;-34
2022/06/14 08:52:58;;;;;;;;;;;;;;;18.40;78.64;102444.09;5039172;28;19932;-28
2022/06/14 08:55:46;;;;;;;;;;;;;;;18.38;78.83;102445.59;5043429;28;20047;-34
2022/06/14 08:58:22;;;;;;;;;;;;;;;18.38;79.03;102440.78;5025723;28;20016;-29
2022/06/14 09:01:00;;;;;;;;;;;;;;;18.39;78.62;102435.94;5038424;28;19925;-32
2022/06/14 09:03:35;;;;;;;;;;;;;;;18.38;76.83;102437.09;5039066;28;19940;-30
2022/06/14 09:06:14;;;;;;;;;;;;;;;18.40;78.75;102435.63;5038258;28;19924;-32
2022/06/14 09:09:19;;;;;;;;;;;;;;;18.50;78.62;102441.06;5029997;28;19951;-31
2022/06/14 09:12:03;;;;;;;;;;;;;;;18.50;78.55;102435.44;5030709;28;20023;-32
2022/06/14 09:14:56;;;;;;;;;;;;;;;18.64;78.79;102438.25;5040904;28;19964;-29
2022/06/14 09:17:48;;;;;;;;;;;;;;;18.68;77.26;102436.47;5043221;28;19925;-30
2022/06/14 09:20:30;;;;;;;;;;;;;;;18.74;77.07;102434.41;5037270;28;19929;-29
2022/06/14 09:23:02;;;;;;;;;;;;;;;18.91;77.15;102431.75;5043091;28;20004;-37
2022/06/14 09:25:59;;;;;;;;;;;;;;;19.07;75.62;102435.88;5039364;28;19951;-29
2022/06/14 09:28:43;;;;;;;;;;;;;;;19.18;74.93;102442.97;5043073;28;19972;-30
2022/06/14 09:31:22;;;;;;;;;;;;;;;19.29;74.62;102432.25;5033129;28;19936;-29
2022/06/14 09:34:08;;;;;;;;;;;;;;;19.43;73.77;102435.03;5037515;28;19974;-33
2022/06/14 09:36:51;;;;;;;;;;;;;;;19.59;72.12;102436.34;5037645;28;19925;-33
2022/06/14 09:39:31;;;;;;;;;;;;;;;19.73;72.79;102427.78;5036608;28;19931;-30
2022/06/14 09:42:07;;;;;;;;;;;;;;;19.92;73.71;102428.41;5044134;28;19941;-29
2022/06/14 09:44:57;;;;;;;;;;;;;;;20.05;71.01;102427.47;5046903;28;19925;-31
2022/06/14 09:47:33;;;;;;;;;;;;;;;20.10;69.25;102424.50;5045534;28;19939;-35
2022/06/14 09:50:19;;;;;;;;;;;;;;;20.16;70.24;102426.03;5031013;28;20396;-33
2022/06/14 09:53:00;;;;;;;;;;;;;;;20.27;71.23;102427.41;5030555;28;20415;-36
2022/06/14 09:55:46;;;;;;;;;;;;;;;20.57;72.85;102422.06;5043987;28;19925;-29
2022/06/14 09:58:31;;;;;;;;;;;;;;;20.93;68.98;102422.63;5041341;28;20298;-30
2022/06/14 10:01:06;;;;;;;;;;;;;;;21.20;70.80;102423.50;5022428;28;19929;-30
2022/06/14 10:03:49;;;;;;;;;;;;;;;21.27;64.09;102429.53;5041523;28;19959;-29
2022/06/14 10:06:50;;;;;;;;;;;;;;;21.29;64.58;102427.19;5043830;28;19925;-39
2022/06/14 10:09:32;;;;;;;;;;;;;;;21.46;65.71;102415.81;4999134;28;20024;-32
2022/06/14 10:12:08;;;;;;;;;;;;;;;21.79;64.57;102424.63;4996701;28;19925;-41
2022/06/14 10:14:45;;;;;;;;;;;;;;;21.94;60.09;102423.25;5028687;28;19932;-30
2022/06/14 10:17:28;;;;;;;;;;;;;;;22.23;62.46;102422.50;5038963;28;19932;-34
2022/06/14 10:20:04;;;;;;;;;;;;;;;22.53;58.89;102421.38;5043096;28;20142;-36
2022/06/14 10:22:37;;;;;;;;;;;;;;;22.64;60.21;102418.97;5044752;28;19944;-32
2022/06/14 10:25:10;;;;;;;;;;;;;;;23.13;65.51;102420.19;5043046;28;19947;-41
2022/06/14 10:30:35;;;;;;;;;;;;;;;24.14;55.56;102417.84;5041451;28;19997;-35
2022/06/14 10:33:21;;;;;;;;;;;;;;;24.28;56.98;102415.53;5045972;28;20366;-31
2022/06/14 10:35:54;;;;;;;;;;;;;;;24.37;51.87;102404.84;5044817;28;19925;-32
2022/06/14 10:38:34;;;;;;;;;;;;;;;24.25;54.07;102401.97;5045711;28;19924;-32
2022/06/14 10:41:05;;;;;;;;;;;;;;;24.46;52.76;102410.41;5039667;28;19936;-31
2022/06/14 10:43:38;;;;;;;;;;;;;;;24.49;52.93;102400.31;5039804;28;19932;-35
2022/06/14 10:46:09;;;;;;;;;;;;;;;24.64;53.87;102396.72;5040532;28;20348;-36
2022/06/14 10:49:00;;;;;;;;;;;;;;;24.95;53.51;102396.97;5039892;28;19933;-36
2022/06/14 10:51:36;;;;;;;;;;;;;;;25.37;53.07;102400.28;5040743;28;19956;-42
2022/06/14 10:54:08;;;;;;;;;;;;;;;25.73;52.03;102393.59;5045177;28;19937;-38
2022/06/14 10:56:45;;;;;;;;;;;;;;;25.92;48.16;102394.91;5039456;28;19925;-35
2022/06/14 10:59:26;;;;;;;;;;;;;;;25.97;47.99;102388.94;5040120;28;20272;-34
2022/06/14 11:01:57;;;;;;;;;;;;;;;25.91;48.43;102381.81;5044123;28;19925;-39
2022/06/14 11:04:30;;;;;;;;;;;;;;;26.09;49.96;102385.97;5039657;28;19932;-32
2022/06/14 11:07:18;;;;;;;;;;;;;;;26.56;49.79;102385.16;5040187;28;20427;-34
2022/06/14 11:09:57;;;;;;;;;;;;;;;27.08;47.13;102390.47;5039776;28;20429;-31
2022/06/14 11:12:33;;;;;;;;;;;;;;;27.35;44.11;102394.34;5041775;28;20023;-31
2022/06/14 11:15:04;;;;;;;;;;;;;;;27.27;41.36;102392.53;5035268;28;19925;-35
2022/06/14 11:17:43;;;;;;;;;;;;;;;26.93;41.74;102395.03;5039931;28;20005;-30
2022/06/14 11:20:16;;;;;;;;;;;;;;;26.79;42.14;102391.81;5041510;28;19929;-35
2022/06/14 11:22:47;;;;;;;;;;;;;;;26.97;43.42;102383.69;5043730;28;20340;-30
2022/06/14 11:25:20;;;;;;;;;;;;;;;27.23;42.62;102383.84;5038488;28;20362;-34
2022/06/14 11:27:54;;;;;;;;;;;;;;;27.52;44.02;102379.56;5040292;28;19933;-32
2022/06/14 11:30:32;;;;;;;;;;;;;;;27.89;42.17;102382.75;5035240;28;19931;-33
2022/06/14 11:33:05;;;;;;;;;;;;;;;27.89;39.32;102374.16;5039934;28;19971;-32
2022/06/14 11:35:41;;;;;;;;;;;;;;;27.83;39.36;102369.09;5039276;28;19932;-36
2022/06/14 11:38:22;;;;;;;;;;;;;;;27.74;41.42;102369.38;5040754;28;19948;-32
2022/06/14 11:40:52;;;;;;;;;;;;;;;27.86;42.32;102376.94;5044396;28;20378;-36
2022/06/14 11:43:27;;;;;;;;;;;;;;;27.82;40.79;102364.56;5043686;28;19925;-32
2022/06/14 11:45:58;;;;;;;;;;;;;;;27.92;42.56;102361.91;5038068;28;20395;-31
2022/06/14 11:48:31;;;;;;;;;;;;;;;28.02;41.33;102360.44;5043459;28;20366;-31
2022/06/14 11:51:01;;;;;;;;;;;;;;;27.99;40.10;102364.06;5044412;28;19987;-31
2022/06/14 11:53:50;;;;;;;;;;;;;;;27.92;40.69;102358.22;5038280;28;20404;-32
2022/06/14 11:56:23;;;;;;;;;;;;;;;27.85;42.20;102360.94;5039129;28;19951;-33
2022/06/14 11:59:01;;;;;;;;;;;;;;;27.96;40.00;102362.81;5040265;28;19925;-34
2022/06/14 12:01:32;;;;;;;;;;;;;;;27.86;40.46;102354.81;5037670;28;19932;-37
2022/06/14 12:04:08;;;;;;;;;;;;;;;27.78;39.35;102353.03;5040203;28;19925;-39
2022/06/14 12:06:41;;;;;;;;;;;;;;;27.61;42.64;102354.34;5037675;28;20427;-38
2022/06/14 12:09:17;;;;;;;;;;;;;;;27.67;43.77;102355.72;5042875;28;19936;-31
2022/06/14 12:11:51;;;;;;;;;;;;;;;27.57;40.63;102353.47;5038256;28;19928;-36
2022/06/14 12:14:28;;;;;;;;;;;;;;;27.47;38.70;102359.78;5040271;28;20286;-30
2022/06/14 12:16:57;;;;;;;;;;;;;;;27.23;40.97;102354.34;5038107;28;19939;-37
2022/06/14 12:19:28;;;;;;;;;;;;;;;27.06;41.79;102353.59;5040089;28;19931;-41
2022/06/14 12:22:00;;;;;;;;;;;;;;;27.13;41.16;102358.66;5037316;28;21436;-30
2022/06/14 12:27:18;;;;;;;;;;;;;;;27.39;41.35;102355.09;5043978;28;20313;-33
2022/06/14 12:29:48;;;;;;;;;;;;;;;27.62;41.51;102346.56;5039068;28;19928;-39
2022/06/14 12:32:21;;;;;;;;;;;;;;;27.95;39.63;102349.69;5032202;28;19925;-32
2022/06/14 12:34:50;;;;;;;;;;;;;;;28.27;39.65;102344.50;5042911;28;19933;-30
2022/06/14 12:37:22;;;;;;;;;;;;;;;28.32;38.36;102332.69;5043759;28;19925;-31
2022/06/14 12:39:53;;;;;;;;;;;;;;;28.37;36.98;102334.44;5043738;28;19925;-31
2022/06/14 12:42:26;;;;;;;;;;;;;;;28.22;36.81;102333.34;5043111;28;19968;-31
2022/06/14 12:44:56;;;;;;;;;;;;;;;28.26;39.21;102331.38;5043816;28;20376;-31
2022/06/14 12:47:28;;;;;;;;;;;;;;;28.36;37.74;102332.75;5043491;28;20309;-31
2022/06/14 12:49:57;;;;;;;;;;;;;;;28.26;37.62;102331.38;5040453;28;19925;-31
2022/06/14 12:52:28;;;;;;;;;;;;;;;28.26;39.51;102325.63;5042498;28;20012;-35
2022/06/14 12:54:58;;;;;;;;;;;;;;;28.34;37.81;102324.53;5043577;28;19928;-33
2022/06/14 12:57:34;;;;;;;;;;;;;;;28.41;37.09;102318.06;5040247;28;20012;-29
2022/06/14 13:00:04;;;;;;;;;;;;;;;28.30;38.94;102329.38;5043414;28;19924;-33
2022/06/14 13:02:37;;;;;;;;;;;;;;;28.27;37.58;102323.56;5041077;28;19929;-39
2022/06/14 13:05:12;;;;;;;;;;;;;;;28.18;38.24;102323.00;5043417;28;19924;-30
2022/06/14 13:07:46;;;;;;;;;;;;;;;27.96;38.17;102322.63;5040914;28;20387;-31
2022/06/14 13:10:22;;;;;;;;;;;;;;;27.75;39.15;102311.59;5042709;28;19931;-30
2022/06/14 13:12:57;;;;;;;;;;;;;;;27.65;40.07;102315.09;5044840;28;19925;-36
2022/06/14 13:15:30;;;;;;;;;;;;;;;27.55;38.93;102314.88;5043953;28;20286;-35